aviador You're here:

KHSV Decoded Metar

HUNTSVILLE in AL, USA
Report Time2017-09-24 05:53:00
UTC Time2017-09-24 06:54:59
Flight Rules vfr VFR
Wind090° at 04 kt
W.Decomp.*RWY 18: 0.1 kt HW 4 kt LCW
W.Rank090° ranks 19
Current wind is below 090° avg. (4.6)
Visibility9999 m
Phenomena:N/A
Clouds:N/A
CeilingNone
Temp21°C (ISA +7)
Dew Point21°C (100% RH)
QNH1017 hPa
Density Alt1,670 ft
Elevation627 ft
Report Wrong Elevation
Raw Report
METAR KHSV 240553Z 09004KT 10SM CLR 21/21 A3002 RMK AO2 SLP156 T02110206
10256 20211 403330211 56001=

Extra information for KHSV:More info

Metar Taf Metar & Taf Last 4 Metars F.Rules Stats Wind Profile Meteogram Temp Stats Airport Information Weather charts Add Link Nearby VenuesMetar ALERT Operation Metar Decoded Social comments

AIRNAV info for KHSV